This is the latest recevied weather packets stored in our database for station/object KC9VAF. If no packets are shown the sender has not sent any weather packets the latest 1 day(s).
| Time | Temp. | Humidity | Pressure | Rain* | Wind** | Luminosity | Snow |
|---|---|---|---|---|---|---|---|
| 1778086623 | 11.11° C | 45% | 1014.3 hPa | 0 mm | - | 261 W/m² | - |
| 1778085714 | 11.11° C | 43% | 1014.3 hPa | 0 mm | - | 361 W/m² | - |
| 1778085410 | 11.11° C | 43% | 1014.3 hPa | 0 mm | - | 227 W/m² | - |
| 1778084196 | 11.11° C | 43% | 1014.1 hPa | 0 mm | - | 165 W/m² | - |
| 1778083893 | 11.67° C | 41% | 1014.2 hPa | 0 mm | - | 151 W/m² | - |
| 1778079722 | 12.22° C | 42% | 1014.2 hPa | 0 mm | - | 758 W/m² | - |
| 1778079419 | 12.22° C | 42% | 1014.2 hPa | 0 mm | - | 631 W/m² | - |
| 1778078510 | 11.11° C | 46% | 1014.3 hPa | 0 mm | - | 331 W/m² | - |
| 1778077301 | 10.56° C | 45% | 1014.3 hPa | 0 mm | - | 485 W/m² | - |
| 1778076091 | 10.56° C | 47% | 1014.1 hPa | 0 mm | - | 340 W/m² | - |
| 1778075788 | 10.56° C | 46% | 1014.5 hPa | 0 mm | - | 212 W/m² | - |
| 1778075484 | 10° C | 47% | 1014.1 hPa | 0 mm | - | 236 W/m² | - |
| 1778075181 | 10° C | 45% | 1014.2 hPa | 0 mm | - | 183 W/m² | - |
| 1778074271 | 9.44° C | 48% | 1014.2 hPa | 0 mm | - | 79 W/m² | - |
| 1778073665 | 8.89° C | 50% | 1014.1 hPa | 0 mm | - | 85 W/m² | - |
| 1778072453 | 7.78° C | 55% | 1013.9 hPa | 0 mm | - | 117 W/m² | - |
| 1778071546 | 6.67° C | 59% | 1013.9 hPa | 0 mm | - | 72 W/m² | - |
| 1778071244 | 6.67° C | 61% | 1013.6 hPa | 0 mm | - | 53 W/m² | - |
| 1778070640 | 6.11° C | 63% | 1013.8 hPa | 0 mm | - | 47 W/m² | - |
| 1778068219 | 3.33° C | 77% | 1013.6 hPa | 0 mm | - | 40 W/m² | - |
| 1778067009 | 2.22° C | 79% | 1013.2 hPa | 0 mm | - | 29 W/m² | - |
| 1778066403 | 1.67° C | 82% | 1013.2 hPa | 0 mm | - | 23 W/m² | - |
| 1778066101 | 1.11° C | 82% | 1013.2 hPa | 0 mm | - | 20 W/m² | - |
| 1778064888 | 1.11° C | 80% | 1012.7 hPa | 0 mm | - | 8 W/m² | - |
| 1778063375 | 0.56° C | 81% | 1012.8 hPa | 0 mm | - | 0 W/m² | - |
* Rain latest hour (hover to see other rain measurements)
** Current wind speed in m/s (hover to see current wind gust speed)